sensor_id;sensor_type;location;lat;lon;timestamp;P1;durP1;ratioP1;P2;durP2;ratioP2
3085;SDS011;52812;48.960;9.108;2023-05-09T00:01:46;22.37;;;12.17;;
3085;SDS011;52812;48.960;9.108;2023-05-09T00:04:11;23.03;;;14.83;;
3085;SDS011;52812;48.960;9.108;2023-05-09T00:06:37;23.97;;;14.60;;
3085;SDS011;52812;48.960;9.108;2023-05-09T00:09:03;19.97;;;13.47;;
3085;SDS011;52812;48.960;9.108;2023-05-09T00:11:29;18.10;;;12.67;;
3085;SDS011;52812;48.960;9.108;2023-05-09T00:13:55;22.10;;;13.23;;
3085;SDS011;52812;48.960;9.108;2023-05-09T00:16:21;14.70;;;11.27;;
3085;SDS011;52812;48.960;9.108;2023-05-09T00:18:48;18.80;;;12.73;;
3085;SDS011;52812;48.960;9.108;2023-05-09T00:21:14;18.27;;;12.90;;
3085;SDS011;52812;48.960;9.108;2023-05-09T00:23:40;18.23;;;12.53;;
3085;SDS011;52812;48.960;9.108;2023-05-09T00:26:06;22.87;;;12.80;;
3085;SDS011;52812;48.960;9.108;2023-05-09T00:28:31;17.33;;;12.67;;
3085;SDS011;52812;48.960;9.108;2023-05-09T00:30:57;20.17;;;13.50;;
3085;SDS011;52812;48.960;9.108;2023-05-09T00:33:23;23.63;;;14.37;;
3085;SDS011;52812;48.960;9.108;2023-05-09T00:35:51;27.10;;;16.47;;
3085;SDS011;52812;48.960;9.108;2023-05-09T00:38:22;28.57;;;15.53;;
3085;SDS011;52812;48.960;9.108;2023-05-09T00:40:48;24.23;;;15.50;;
3085;SDS011;52812;48.960;9.108;2023-05-09T00:43:13;23.53;;;14.47;;
3085;SDS011;52812;48.960;9.108;2023-05-09T00:45:41;21.13;;;13.57;;
3085;SDS011;52812;48.960;9.108;2023-05-09T00:48:07;17.20;;;11.33;;
3085;SDS011;52812;48.960;9.108;2023-05-09T00:50:33;18.90;;;11.63;;
3085;SDS011;52812;48.960;9.108;2023-05-09T00:52:58;16.20;;;10.33;;
3085;SDS011;52812;48.960;9.108;2023-05-09T00:55:24;20.87;;;12.33;;
3085;SDS011;52812;48.960;9.108;2023-05-09T00:57:51;17.93;;;11.60;;
3085;SDS011;52812;48.960;9.108;2023-05-09T01:00:17;18.80;;;11.90;;
3085;SDS011;52812;48.960;9.108;2023-05-09T01:02:43;14.83;;;11.00;;
3085;SDS011;52812;48.960;9.108;2023-05-09T01:05:17;19.07;;;11.10;;
3085;SDS011;52812;48.960;9.108;2023-05-09T01:10:38;16.80;;;10.70;;
3085;SDS011;52812;48.960;9.108;2023-05-09T01:13:25;19.20;;;11.00;;
3085;SDS011;52812;48.960;9.108;2023-05-09T01:18:35;17.23;;;11.00;;
3085;SDS011;52812;48.960;9.108;2023-05-09T01:21:07;16.37;;;11.03;;
3085;SDS011;52812;48.960;9.108;2023-05-09T01:26:19;18.47;;;12.50;;
3085;SDS011;52812;48.960;9.108;2023-05-09T01:31:35;20.43;;;12.40;;
3085;SDS011;52812;48.960;9.108;2023-05-09T01:34:04;19.90;;;12.77;;
3085;SDS011;52812;48.960;9.108;2023-05-09T01:36:32;16.93;;;11.57;;
3085;SDS011;52812;48.960;9.108;2023-05-09T01:39:01;20.90;;;11.90;;
3085;SDS011;52812;48.960;9.108;2023-05-09T01:41:29;21.53;;;12.23;;
3085;SDS011;52812;48.960;9.108;2023-05-09T01:43:56;21.37;;;13.80;;
3085;SDS011;52812;48.960;9.108;2023-05-09T01:46:24;22.63;;;12.70;;
3085;SDS011;52812;48.960;9.108;2023-05-09T01:48:52;22.93;;;13.57;;
3085;SDS011;52812;48.960;9.108;2023-05-09T01:51:19;23.07;;;14.00;;
3085;SDS011;52812;48.960;9.108;2023-05-09T01:53:46;22.77;;;14.23;;
3085;SDS011;52812;48.960;9.108;2023-05-09T01:56:14;24.60;;;14.07;;
3085;SDS011;52812;48.960;9.108;2023-05-09T01:58:41;18.80;;;12.60;;
3085;SDS011;52812;48.960;9.108;2023-05-09T02:01:07;21.50;;;13.20;;
3085;SDS011;52812;48.960;9.108;2023-05-09T02:03:34;21.27;;;13.20;;
3085;SDS011;52812;48.960;9.108;2023-05-09T02:06:01;21.40;;;13.50;;
3085;SDS011;52812;48.960;9.108;2023-05-09T02:08:28;23.87;;;14.30;;
3085;SDS011;52812;48.960;9.108;2023-05-09T02:10:55;20.60;;;13.07;;
3085;SDS011;52812;48.960;9.108;2023-05-09T02:13:21;20.70;;;12.97;;
3085;SDS011;52812;48.960;9.108;2023-05-09T02:15:46;20.63;;;13.00;;
3085;SDS011;52812;48.960;9.108;2023-05-09T02:18:13;18.80;;;12.80;;
3085;SDS011;52812;48.960;9.108;2023-05-09T02:20:39;22.87;;;14.73;;
3085;SDS011;52812;48.960;9.108;2023-05-09T02:23:04;22.80;;;12.80;;
3085;SDS011;52812;48.960;9.108;2023-05-09T02:25:31;19.43;;;12.83;;
3085;SDS011;52812;48.960;9.108;2023-05-09T02:27:57;18.07;;;11.53;;
3085;SDS011;52812;48.960;9.108;2023-05-09T02:30:25;19.13;;;11.87;;
3085;SDS011;52812;48.960;9.108;2023-05-09T02:32:54;18.00;;;11.73;;
3085;SDS011;52812;48.960;9.108;2023-05-09T02:35:23;20.20;;;12.17;;
3085;SDS011;52812;48.960;9.108;2023-05-09T02:37:51;21.10;;;13.60;;
3085;SDS011;52812;48.960;9.108;2023-05-09T02:40:18;23.50;;;14.30;;
3085;SDS011;52812;48.960;9.108;2023-05-09T02:42:44;27.80;;;15.47;;
3085;SDS011;52812;48.960;9.108;2023-05-09T02:45:10;23.83;;;15.00;;
3085;SDS011;52812;48.960;9.108;2023-05-09T02:47:36;24.70;;;15.43;;
3085;SDS011;52812;48.960;9.108;2023-05-09T02:50:02;29.33;;;15.57;;
3085;SDS011;52812;48.960;9.108;2023-05-09T02:52:29;23.20;;;14.80;;
3085;SDS011;52812;48.960;9.108;2023-05-09T02:54:55;24.90;;;14.70;;
3085;SDS011;52812;48.960;9.108;2023-05-09T02:57:21;26.80;;;15.70;;
3085;SDS011;52812;48.960;9.108;2023-05-09T02:59:46;29.23;;;16.67;;
3085;SDS011;52812;48.960;9.108;2023-05-09T03:02:12;29.93;;;16.13;;
3085;SDS011;52812;48.960;9.108;2023-05-09T03:04:37;26.03;;;16.00;;
3085;SDS011;52812;48.960;9.108;2023-05-09T03:07:03;28.00;;;16.73;;
3085;SDS011;52812;48.960;9.108;2023-05-09T03:09:29;28.37;;;17.40;;
3085;SDS011;52812;48.960;9.108;2023-05-09T03:11:55;25.10;;;15.97;;
3085;SDS011;52812;48.960;9.108;2023-05-09T03:14:20;26.97;;;15.40;;
3085;SDS011;52812;48.960;9.108;2023-05-09T03:16:46;26.47;;;15.53;;
3085;SDS011;52812;48.960;9.108;2023-05-09T03:19:12;26.90;;;15.73;;
3085;SDS011;52812;48.960;9.108;2023-05-09T03:21:37;26.93;;;16.47;;
3085;SDS011;52812;48.960;9.108;2023-05-09T03:24:03;27.67;;;15.30;;
3085;SDS011;52812;48.960;9.108;2023-05-09T03:26:31;23.77;;;13.87;;
3085;SDS011;52812;48.960;9.108;2023-05-09T03:28:57;22.37;;;14.77;;
3085;SDS011;52812;48.960;9.108;2023-05-09T03:31:23;24.77;;;15.03;;
3085;SDS011;52812;48.960;9.108;2023-05-09T03:33:48;24.77;;;14.97;;
3085;SDS011;52812;48.960;9.108;2023-05-09T03:36:14;23.03;;;14.50;;
3085;SDS011;52812;48.960;9.108;2023-05-09T03:38:41;21.37;;;14.17;;
3085;SDS011;52812;48.960;9.108;2023-05-09T03:41:06;25.70;;;14.43;;
3085;SDS011;52812;48.960;9.108;2023-05-09T03:43:32;22.03;;;14.50;;
3085;SDS011;52812;48.960;9.108;2023-05-09T03:45:58;26.00;;;15.83;;
3085;SDS011;52812;48.960;9.108;2023-05-09T03:48:23;24.07;;;14.80;;
3085;SDS011;52812;48.960;9.108;2023-05-09T03:50:49;23.37;;;14.73;;
3085;SDS011;52812;48.960;9.108;2023-05-09T03:53:15;23.27;;;13.83;;
3085;SDS011;52812;48.960;9.108;2023-05-09T03:55:40;22.50;;;13.60;;
3085;SDS011;52812;48.960;9.108;2023-05-09T03:58:06;27.17;;;16.10;;
3085;SDS011;52812;48.960;9.108;2023-05-09T04:00:32;24.60;;;15.27;;
3085;SDS011;52812;48.960;9.108;2023-05-09T04:02:57;22.23;;;14.30;;
3085;SDS011;52812;48.960;9.108;2023-05-09T04:05:23;21.93;;;13.10;;
3085;SDS011;52812;48.960;9.108;2023-05-09T04:07:49;21.53;;;13.13;;
3085;SDS011;52812;48.960;9.108;2023-05-09T04:10:14;20.30;;;12.90;;
3085;SDS011;52812;48.960;9.108;2023-05-09T04:12:40;25.93;;;15.13;;
3085;SDS011;52812;48.960;9.108;2023-05-09T04:15:06;24.50;;;14.80;;
3085;SDS011;52812;48.960;9.108;2023-05-09T04:17:32;25.97;;;15.27;;
3085;SDS011;52812;48.960;9.108;2023-05-09T04:19:58;23.67;;;14.70;;
3085;SDS011;52812;48.960;9.108;2023-05-09T04:22:23;25.53;;;15.57;;
3085;SDS011;52812;48.960;9.108;2023-05-09T04:24:49;23.67;;;14.67;;
3085;SDS011;52812;48.960;9.108;2023-05-09T04:27:15;25.37;;;14.10;;
3085;SDS011;52812;48.960;9.108;2023-05-09T04:29:40;25.97;;;15.13;;
3085;SDS011;52812;48.960;9.108;2023-05-09T04:32:06;26.07;;;15.37;;
3085;SDS011;52812;48.960;9.108;2023-05-09T04:34:32;27.67;;;16.83;;
3085;SDS011;52812;48.960;9.108;2023-05-09T04:36:58;28.80;;;16.87;;
3085;SDS011;52812;48.960;9.108;2023-05-09T04:39:23;29.23;;;16.90;;
3085;SDS011;52812;48.960;9.108;2023-05-09T04:41:49;31.50;;;18.33;;
3085;SDS011;52812;48.960;9.108;2023-05-09T04:44:15;31.50;;;18.37;;
3085;SDS011;52812;48.960;9.108;2023-05-09T04:46:41;28.83;;;17.53;;
3085;SDS011;52812;48.960;9.108;2023-05-09T04:49:07;30.93;;;17.57;;
3085;SDS011;52812;48.960;9.108;2023-05-09T04:51:32;32.73;;;18.77;;
3085;SDS011;52812;48.960;9.108;2023-05-09T04:53:58;31.37;;;18.90;;
3085;SDS011;52812;48.960;9.108;2023-05-09T04:56:24;32.13;;;18.20;;
3085;SDS011;52812;48.960;9.108;2023-05-09T04:58:50;33.33;;;18.90;;
3085;SDS011;52812;48.960;9.108;2023-05-09T05:01:16;30.37;;;18.07;;
3085;SDS011;52812;48.960;9.108;2023-05-09T05:03:42;36.87;;;19.67;;
3085;SDS011;52812;48.960;9.108;2023-05-09T05:06:08;32.00;;;18.47;;
3085;SDS011;52812;48.960;9.108;2023-05-09T05:08:33;33.20;;;18.67;;
3085;SDS011;52812;48.960;9.108;2023-05-09T05:10:59;31.27;;;18.00;;
3085;SDS011;52812;48.960;9.108;2023-05-09T05:13:24;36.00;;;20.03;;
3085;SDS011;52812;48.960;9.108;2023-05-09T05:15:50;35.00;;;18.80;;
3085;SDS011;52812;48.960;9.108;2023-05-09T05:18:16;32.23;;;18.23;;
3085;SDS011;52812;48.960;9.108;2023-05-09T05:20:43;33.20;;;18.80;;
3085;SDS011;52812;48.960;9.108;2023-05-09T05:23:08;34.70;;;18.10;;
3085;SDS011;52812;48.960;9.108;2023-05-09T05:25:34;31.30;;;18.17;;
3085;SDS011;52812;48.960;9.108;2023-05-09T05:28:00;29.70;;;18.37;;
3085;SDS011;52812;48.960;9.108;2023-05-09T05:30:25;32.30;;;18.30;;
3085;SDS011;52812;48.960;9.108;2023-05-09T05:32:51;38.30;;;18.60;;
3085;SDS011;52812;48.960;9.108;2023-05-09T05:35:16;33.53;;;19.17;;
3085;SDS011;52812;48.960;9.108;2023-05-09T05:37:43;30.33;;;18.20;;
3085;SDS011;52812;48.960;9.108;2023-05-09T05:40:08;36.37;;;20.23;;
3085;SDS011;52812;48.960;9.108;2023-05-09T05:42:34;35.53;;;20.60;;
3085;SDS011;52812;48.960;9.108;2023-05-09T05:45:00;37.30;;;20.50;;
3085;SDS011;52812;48.960;9.108;2023-05-09T05:47:31;32.97;;;18.37;;
3085;SDS011;52812;48.960;9.108;2023-05-09T05:49:58;38.23;;;21.20;;
3085;SDS011;52812;48.960;9.108;2023-05-09T05:52:27;33.07;;;18.67;;
3085;SDS011;52812;48.960;9.108;2023-05-09T05:54:53;30.13;;;18.10;;
3085;SDS011;52812;48.960;9.108;2023-05-09T05:57:19;34.57;;;19.10;;
3085;SDS011;52812;48.960;9.108;2023-05-09T05:59:48;35.20;;;19.77;;
3085;SDS011;52812;48.960;9.108;2023-05-09T06:02:14;32.90;;;18.10;;
3085;SDS011;52812;48.960;9.108;2023-05-09T06:04:40;29.30;;;17.53;;
3085;SDS011;52812;48.960;9.108;2023-05-09T06:07:06;33.70;;;18.90;;
3085;SDS011;52812;48.960;9.108;2023-05-09T06:09:32;32.43;;;18.30;;
3085;SDS011;52812;48.960;9.108;2023-05-09T06:11:57;30.97;;;17.43;;
3085;SDS011;52812;48.960;9.108;2023-05-09T06:14:23;32.63;;;19.10;;
3085;SDS011;52812;48.960;9.108;2023-05-09T06:16:48;28.67;;;17.80;;
3085;SDS011;52812;48.960;9.108;2023-05-09T06:19:14;31.57;;;17.87;;
3085;SDS011;52812;48.960;9.108;2023-05-09T06:21:39;30.53;;;18.33;;
3085;SDS011;52812;48.960;9.108;2023-05-09T06:24:05;31.50;;;18.30;;
3085;SDS011;52812;48.960;9.108;2023-05-09T06:26:31;29.30;;;16.57;;
3085;SDS011;52812;48.960;9.108;2023-05-09T06:28:56;25.90;;;16.40;;
3085;SDS011;52812;48.960;9.108;2023-05-09T06:31:22;24.50;;;15.93;;
3085;SDS011;52812;48.960;9.108;2023-05-09T06:33:47;26.63;;;16.50;;
3085;SDS011;52812;48.960;9.108;2023-05-09T06:36:13;26.90;;;16.63;;
3085;SDS011;52812;48.960;9.108;2023-05-09T06:38:38;26.53;;;16.67;;
3085;SDS011;52812;48.960;9.108;2023-05-09T06:41:04;27.90;;;16.70;;
3085;SDS011;52812;48.960;9.108;2023-05-09T06:43:30;28.03;;;16.80;;
3085;SDS011;52812;48.960;9.108;2023-05-09T06:45:55;29.53;;;17.03;;
3085;SDS011;52812;48.960;9.108;2023-05-09T06:48:21;29.67;;;17.07;;
3085;SDS011;52812;48.960;9.108;2023-05-09T06:50:48;26.30;;;16.83;;
3085;SDS011;52812;48.960;9.108;2023-05-09T06:53:13;27.97;;;17.57;;
3085;SDS011;52812;48.960;9.108;2023-05-09T06:55:39;28.77;;;17.70;;
3085;SDS011;52812;48.960;9.108;2023-05-09T06:58:05;28.10;;;16.50;;
3085;SDS011;52812;48.960;9.108;2023-05-09T07:00:31;26.77;;;17.07;;
3085;SDS011;52812;48.960;9.108;2023-05-09T07:02:56;24.80;;;16.67;;
3085;SDS011;52812;48.960;9.108;2023-05-09T07:05:22;25.83;;;15.87;;
3085;SDS011;52812;48.960;9.108;2023-05-09T07:07:48;25.70;;;15.53;;
3085;SDS011;52812;48.960;9.108;2023-05-09T07:10:13;23.77;;;15.30;;
3085;SDS011;52812;48.960;9.108;2023-05-09T07:12:39;25.87;;;16.57;;
3085;SDS011;52812;48.960;9.108;2023-05-09T07:15:05;24.77;;;15.73;;
3085;SDS011;52812;48.960;9.108;2023-05-09T07:17:31;23.77;;;16.30;;
3085;SDS011;52812;48.960;9.108;2023-05-09T07:19:57;23.90;;;16.17;;
3085;SDS011;52812;48.960;9.108;2023-05-09T07:22:22;24.60;;;16.27;;
3085;SDS011;52812;48.960;9.108;2023-05-09T07:24:48;25.97;;;17.00;;
3085;SDS011;52812;48.960;9.108;2023-05-09T07:27:14;26.20;;;17.00;;
3085;SDS011;52812;48.960;9.108;2023-05-09T07:29:40;23.33;;;15.00;;
3085;SDS011;52812;48.960;9.108;2023-05-09T07:32:05;27.47;;;16.20;;
3085;SDS011;52812;48.960;9.108;2023-05-09T07:34:31;26.97;;;16.77;;
3085;SDS011;52812;48.960;9.108;2023-05-09T07:36:56;27.60;;;16.43;;
3085;SDS011;52812;48.960;9.108;2023-05-09T07:39:22;25.97;;;15.93;;
3085;SDS011;52812;48.960;9.108;2023-05-09T07:41:48;22.97;;;14.90;;
3085;SDS011;52812;48.960;9.108;2023-05-09T07:44:13;25.37;;;15.63;;
3085;SDS011;52812;48.960;9.108;2023-05-09T07:46:39;24.27;;;15.67;;
3085;SDS011;52812;48.960;9.108;2023-05-09T07:49:06;22.10;;;14.97;;
3085;SDS011;52812;48.960;9.108;2023-05-09T07:51:31;21.90;;;15.20;;
3085;SDS011;52812;48.960;9.108;2023-05-09T07:53:57;23.43;;;15.10;;
3085;SDS011;52812;48.960;9.108;2023-05-09T07:56:23;23.30;;;15.60;;
3085;SDS011;52812;48.960;9.108;2023-05-09T07:58:48;21.07;;;14.57;;
3085;SDS011;52812;48.960;9.108;2023-05-09T08:01:14;20.17;;;14.00;;
3085;SDS011;52812;48.960;9.108;2023-05-09T08:03:40;20.73;;;15.07;;
3085;SDS011;52812;48.960;9.108;2023-05-09T08:06:05;20.03;;;13.83;;
3085;SDS011;52812;48.960;9.108;2023-05-09T08:08:31;19.50;;;14.13;;
3085;SDS011;52812;48.960;9.108;2023-05-09T08:10:57;18.10;;;13.37;;
3085;SDS011;52812;48.960;9.108;2023-05-09T08:13:23;21.20;;;14.30;;
3085;SDS011;52812;48.960;9.108;2023-05-09T08:15:49;21.43;;;15.03;;
3085;SDS011;52812;48.960;9.108;2023-05-09T08:18:15;21.80;;;14.50;;
3085;SDS011;52812;48.960;9.108;2023-05-09T08:20:40;20.40;;;13.13;;
3085;SDS011;52812;48.960;9.108;2023-05-09T08:23:06;19.37;;;13.50;;
3085;SDS011;52812;48.960;9.108;2023-05-09T08:25:31;17.07;;;12.10;;
3085;SDS011;52812;48.960;9.108;2023-05-09T08:27:57;18.93;;;13.27;;
3085;SDS011;52812;48.960;9.108;2023-05-09T08:30:23;20.23;;;14.10;;
3085;SDS011;52812;48.960;9.108;2023-05-09T08:32:48;20.97;;;14.67;;
3085;SDS011;52812;48.960;9.108;2023-05-09T08:35:14;19.83;;;13.73;;
3085;SDS011;52812;48.960;9.108;2023-05-09T08:37:39;20.30;;;13.70;;
3085;SDS011;52812;48.960;9.108;2023-05-09T08:40:05;22.13;;;14.00;;
3085;SDS011;52812;48.960;9.108;2023-05-09T08:42:31;18.63;;;13.80;;
3085;SDS011;52812;48.960;9.108;2023-05-09T08:44:59;17.17;;;12.47;;
3085;SDS011;52812;48.960;9.108;2023-05-09T08:47:30;20.17;;;13.87;;
3085;SDS011;52812;48.960;9.108;2023-05-09T08:50:00;21.50;;;14.13;;
3085;SDS011;52812;48.960;9.108;2023-05-09T08:52:27;20.93;;;14.57;;
3085;SDS011;52812;48.960;9.108;2023-05-09T08:54:55;21.60;;;13.90;;
3085;SDS011;52812;48.960;9.108;2023-05-09T08:57:20;19.17;;;13.93;;
3085;SDS011;52812;48.960;9.108;2023-05-09T08:59:46;21.47;;;14.20;;
3085;SDS011;52812;48.960;9.108;2023-05-09T09:02:13;22.10;;;13.50;;
3085;SDS011;52812;48.960;9.108;2023-05-09T09:04:39;16.63;;;12.00;;
3085;SDS011;52812;48.960;9.108;2023-05-09T09:07:04;19.47;;;13.30;;
3085;SDS011;52812;48.960;9.108;2023-05-09T09:09:32;14.70;;;10.17;;
3085;SDS011;52812;48.960;9.108;2023-05-09T09:12:00;15.03;;;10.40;;
3085;SDS011;52812;48.960;9.108;2023-05-09T09:14:34;13.13;;;9.70;;
3085;SDS011;52812;48.960;9.108;2023-05-09T09:17:03;12.07;;;8.57;;
3085;SDS011;52812;48.960;9.108;2023-05-09T09:19:30;12.70;;;8.70;;
3085;SDS011;52812;48.960;9.108;2023-05-09T09:22:01;13.43;;;9.70;;
3085;SDS011;52812;48.960;9.108;2023-05-09T09:24:29;15.07;;;9.73;;
3085;SDS011;52812;48.960;9.108;2023-05-09T09:26:56;14.10;;;10.87;;
3085;SDS011;52812;48.960;9.108;2023-05-09T09:29:22;17.83;;;11.80;;
3085;SDS011;52812;48.960;9.108;2023-05-09T09:31:51;14.10;;;10.83;;
3085;SDS011;52812;48.960;9.108;2023-05-09T09:34:19;18.60;;;12.00;;
3085;SDS011;52812;48.960;9.108;2023-05-09T09:36:46;15.80;;;11.90;;
3085;SDS011;52812;48.960;9.108;2023-05-09T09:39:12;14.50;;;10.47;;
3085;SDS011;52812;48.960;9.108;2023-05-09T09:41:38;17.83;;;11.57;;
3085;SDS011;52812;48.960;9.108;2023-05-09T09:44:14;14.47;;;11.10;;
3085;SDS011;52812;48.960;9.108;2023-05-09T09:46:46;18.10;;;12.70;;
3085;SDS011;52812;48.960;9.108;2023-05-09T09:49:14;16.37;;;11.67;;
3085;SDS011;52812;48.960;9.108;2023-05-09T09:51:42;17.57;;;12.17;;
3085;SDS011;52812;48.960;9.108;2023-05-09T09:54:08;14.93;;;10.70;;
3085;SDS011;52812;48.960;9.108;2023-05-09T09:56:42;17.00;;;11.80;;
3085;SDS011;52812;48.960;9.108;2023-05-09T09:59:13;12.40;;;9.93;;
3085;SDS011;52812;48.960;9.108;2023-05-09T10:04:30;14.73;;;10.40;;
3085;SDS011;52812;48.960;9.108;2023-05-09T10:06:57;13.67;;;9.93;;
3085;SDS011;52812;48.960;9.108;2023-05-09T10:09:25;12.87;;;8.70;;
3085;SDS011;52812;48.960;9.108;2023-05-09T10:11:52;13.40;;;9.00;;
3085;SDS011;52812;48.960;9.108;2023-05-09T10:14:20;13.30;;;9.90;;
3085;SDS011;52812;48.960;9.108;2023-05-09T10:16:51;14.03;;;10.17;;
3085;SDS011;52812;48.960;9.108;2023-05-09T10:19:20;15.20;;;9.97;;
3085;SDS011;52812;48.960;9.108;2023-05-09T10:21:48;13.30;;;10.40;;
3085;SDS011;52812;48.960;9.108;2023-05-09T10:24:38;13.70;;;10.40;;
3085;SDS011;52812;48.960;9.108;2023-05-09T10:27:25;13.63;;;9.87;;
3085;SDS011;52812;48.960;9.108;2023-05-09T10:30:11;12.00;;;9.30;;
3085;SDS011;52812;48.960;9.108;2023-05-09T10:35:15;13.00;;;9.00;;
3085;SDS011;52812;48.960;9.108;2023-05-09T10:37:42;12.97;;;10.17;;
3085;SDS011;52812;48.960;9.108;2023-05-09T10:40:09;12.20;;;8.40;;
3085;SDS011;52812;48.960;9.108;2023-05-09T10:42:39;12.53;;;8.50;;
3085;SDS011;52812;48.960;9.108;2023-05-09T10:45:08;11.93;;;8.83;;
3085;SDS011;52812;48.960;9.108;2023-05-09T10:47:35;12.33;;;9.70;;
3085;SDS011;52812;48.960;9.108;2023-05-09T10:50:03;9.37;;;7.20;;
3085;SDS011;52812;48.960;9.108;2023-05-09T10:52:31;10.53;;;7.83;;
3085;SDS011;52812;48.960;9.108;2023-05-09T10:55:00;8.73;;;7.13;;
3085;SDS011;52812;48.960;9.108;2023-05-09T10:57:28;8.77;;;7.40;;
3085;SDS011;52812;48.960;9.108;2023-05-09T10:59:55;11.40;;;8.30;;
3085;SDS011;52812;48.960;9.108;2023-05-09T11:02:21;8.27;;;6.83;;
3085;SDS011;52812;48.960;9.108;2023-05-09T11:05:15;9.67;;;7.27;;
3085;SDS011;52812;48.960;9.108;2023-05-09T11:07:41;8.57;;;7.20;;
3085;SDS011;52812;48.960;9.108;2023-05-09T11:12:56;9.93;;;7.83;;
3085;SDS011;52812;48.960;9.108;2023-05-09T11:15:23;9.47;;;7.70;;
3085;SDS011;52812;48.960;9.108;2023-05-09T11:17:50;10.70;;;8.20;;
3085;SDS011;52812;48.960;9.108;2023-05-09T11:20:32;11.67;;;8.53;;
3085;SDS011;52812;48.960;9.108;2023-05-09T11:22:59;9.73;;;7.70;;
3085;SDS011;52812;48.960;9.108;2023-05-09T11:25:27;9.17;;;6.87;;
3085;SDS011;52812;48.960;9.108;2023-05-09T11:27:57;9.60;;;7.43;;
3085;SDS011;52812;48.960;9.108;2023-05-09T11:30:33;9.63;;;6.83;;
3085;SDS011;52812;48.960;9.108;2023-05-09T11:33:02;8.70;;;6.37;;
3085;SDS011;52812;48.960;9.108;2023-05-09T11:35:30;8.10;;;6.60;;
3085;SDS011;52812;48.960;9.108;2023-05-09T11:38:01;8.80;;;6.80;;
3085;SDS011;52812;48.960;9.108;2023-05-09T11:40:28;8.93;;;6.83;;
3085;SDS011;52812;48.960;9.108;2023-05-09T11:42:56;7.73;;;6.67;;
3085;SDS011;52812;48.960;9.108;2023-05-09T11:45:23;8.80;;;6.70;;
3085;SDS011;52812;48.960;9.108;2023-05-09T11:47:51;7.60;;;6.30;;
3085;SDS011;52812;48.960;9.108;2023-05-09T11:50:18;8.40;;;6.27;;
3085;SDS011;52812;48.960;9.108;2023-05-09T11:52:44;10.83;;;7.37;;
3085;SDS011;52812;48.960;9.108;2023-05-09T11:55:14;8.97;;;7.20;;
3085;SDS011;52812;48.960;9.108;2023-05-09T11:57:42;8.30;;;6.70;;
3085;SDS011;52812;48.960;9.108;2023-05-09T12:00:15;9.63;;;7.70;;
3085;SDS011;52812;48.960;9.108;2023-05-09T12:02:45;10.73;;;7.10;;
3085;SDS011;52812;48.960;9.108;2023-05-09T12:05:12;10.53;;;7.13;;
3085;SDS011;52812;48.960;9.108;2023-05-09T12:07:39;7.73;;;6.63;;
3085;SDS011;52812;48.960;9.108;2023-05-09T12:10:08;9.47;;;6.97;;
3085;SDS011;52812;48.960;9.108;2023-05-09T12:12:45;8.43;;;6.70;;
3085;SDS011;52812;48.960;9.108;2023-05-09T12:15:12;9.67;;;7.20;;
3085;SDS011;52812;48.960;9.108;2023-05-09T12:17:39;7.80;;;6.87;;
3085;SDS011;52812;48.960;9.108;2023-05-09T12:20:05;9.30;;;6.83;;
3085;SDS011;52812;48.960;9.108;2023-05-09T12:22:32;11.10;;;7.43;;
3085;SDS011;52812;48.960;9.108;2023-05-09T12:24:59;10.23;;;7.37;;
3085;SDS011;52812;48.960;9.108;2023-05-09T12:27:26;7.97;;;6.70;;
3085;SDS011;52812;48.960;9.108;2023-05-09T12:29:52;7.60;;;6.40;;
3085;SDS011;52812;48.960;9.108;2023-05-09T12:32:19;7.10;;;6.03;;
3085;SDS011;52812;48.960;9.108;2023-05-09T12:34:45;9.17;;;7.00;;
3085;SDS011;52812;48.960;9.108;2023-05-09T12:37:16;7.23;;;6.40;;
3085;SDS011;52812;48.960;9.108;2023-05-09T12:42:32;9.20;;;7.17;;
3085;SDS011;52812;48.960;9.108;2023-05-09T12:45:02;8.13;;;6.67;;
3085;SDS011;52812;48.960;9.108;2023-05-09T12:47:29;11.40;;;6.90;;
3085;SDS011;52812;48.960;9.108;2023-05-09T12:50:02;8.37;;;6.40;;
3085;SDS011;52812;48.960;9.108;2023-05-09T12:52:36;9.30;;;5.97;;
3085;SDS011;52812;48.960;9.108;2023-05-09T12:55:05;8.13;;;6.63;;
3085;SDS011;52812;48.960;9.108;2023-05-09T12:57:31;8.40;;;6.70;;
3085;SDS011;52812;48.960;9.108;2023-05-09T12:59:57;7.93;;;6.47;;
3085;SDS011;52812;48.960;9.108;2023-05-09T13:02:27;8.13;;;6.10;;
3085;SDS011;52812;48.960;9.108;2023-05-09T13:05:10;6.47;;;5.63;;
3085;SDS011;52812;48.960;9.108;2023-05-09T13:10:19;7.03;;;6.07;;
3085;SDS011;52812;48.960;9.108;2023-05-09T13:12:48;16.80;;;6.13;;
3085;SDS011;52812;48.960;9.108;2023-05-09T13:15:15;5.93;;;4.90;;
3085;SDS011;52812;48.960;9.108;2023-05-09T13:17:43;7.60;;;5.53;;
3085;SDS011;52812;48.960;9.108;2023-05-09T13:20:10;6.43;;;5.77;;
3085;SDS011;52812;48.960;9.108;2023-05-09T13:22:36;6.30;;;5.27;;
3085;SDS011;52812;48.960;9.108;2023-05-09T13:25:02;7.30;;;5.43;;
3085;SDS011;52812;48.960;9.108;2023-05-09T13:27:28;7.90;;;6.13;;
3085;SDS011;52812;48.960;9.108;2023-05-09T13:29:54;6.73;;;5.80;;
3085;SDS011;52812;48.960;9.108;2023-05-09T13:32:19;7.47;;;6.20;;
3085;SDS011;52812;48.960;9.108;2023-05-09T13:34:45;7.57;;;6.07;;
3085;SDS011;52812;48.960;9.108;2023-05-09T13:37:11;6.67;;;5.07;;
3085;SDS011;52812;48.960;9.108;2023-05-09T13:39:36;6.90;;;6.07;;
3085;SDS011;52812;48.960;9.108;2023-05-09T13:42:02;7.00;;;6.10;;
3085;SDS011;52812;48.960;9.108;2023-05-09T13:44:28;7.40;;;5.77;;
3085;SDS011;52812;48.960;9.108;2023-05-09T13:46:53;6.77;;;5.50;;
3085;SDS011;52812;48.960;9.108;2023-05-09T13:49:21;7.43;;;5.87;;
3085;SDS011;52812;48.960;9.108;2023-05-09T13:51:47;7.37;;;5.60;;
3085;SDS011;52812;48.960;9.108;2023-05-09T13:54:13;6.10;;;5.50;;
3085;SDS011;52812;48.960;9.108;2023-05-09T13:56:41;9.07;;;6.93;;
3085;SDS011;52812;48.960;9.108;2023-05-09T13:59:07;8.10;;;5.37;;
3085;SDS011;52812;48.960;9.108;2023-05-09T14:01:33;5.37;;;4.43;;
3085;SDS011;52812;48.960;9.108;2023-05-09T14:03:59;5.13;;;4.60;;
3085;SDS011;52812;48.960;9.108;2023-05-09T14:06:25;5.07;;;4.50;;
3085;SDS011;52812;48.960;9.108;2023-05-09T14:08:52;5.13;;;4.63;;
3085;SDS011;52812;48.960;9.108;2023-05-09T14:11:19;5.30;;;4.70;;
3085;SDS011;52812;48.960;9.108;2023-05-09T14:13:45;5.60;;;4.90;;
3085;SDS011;52812;48.960;9.108;2023-05-09T14:16:11;4.50;;;4.10;;
3085;SDS011;52812;48.960;9.108;2023-05-09T14:18:36;5.17;;;4.67;;
3085;SDS011;52812;48.960;9.108;2023-05-09T14:21:02;4.50;;;4.10;;
3085;SDS011;52812;48.960;9.108;2023-05-09T14:23:27;4.63;;;4.17;;
3085;SDS011;52812;48.960;9.108;2023-05-09T14:25:53;4.57;;;4.10;;
3085;SDS011;52812;48.960;9.108;2023-05-09T14:28:19;4.50;;;3.97;;
3085;SDS011;52812;48.960;9.108;2023-05-09T14:30:44;5.13;;;3.90;;
3085;SDS011;52812;48.960;9.108;2023-05-09T14:33:10;6.97;;;4.50;;
3085;SDS011;52812;48.960;9.108;2023-05-09T14:35:35;4.57;;;4.13;;
3085;SDS011;52812;48.960;9.108;2023-05-09T14:38:01;4.20;;;3.80;;
3085;SDS011;52812;48.960;9.108;2023-05-09T14:40:27;5.00;;;3.93;;
3085;SDS011;52812;48.960;9.108;2023-05-09T14:42:56;3.80;;;3.40;;
3085;SDS011;52812;48.960;9.108;2023-05-09T14:45:23;4.20;;;3.80;;
3085;SDS011;52812;48.960;9.108;2023-05-09T14:47:49;3.37;;;3.07;;
3085;SDS011;52812;48.960;9.108;2023-05-09T14:50:15;4.47;;;3.73;;
3085;SDS011;52812;48.960;9.108;2023-05-09T14:52:41;3.40;;;3.10;;
3085;SDS011;52812;48.960;9.108;2023-05-09T14:55:08;4.10;;;3.70;;
3085;SDS011;52812;48.960;9.108;2023-05-09T14:57:33;4.00;;;3.20;;
3085;SDS011;52812;48.960;9.108;2023-05-09T14:59:59;20.60;;;9.83;;
3085;SDS011;52812;48.960;9.108;2023-05-09T15:02:24;3.67;;;3.33;;
3085;SDS011;52812;48.960;9.108;2023-05-09T15:04:51;3.43;;;3.13;;
3085;SDS011;52812;48.960;9.108;2023-05-09T15:07:16;10.70;;;5.53;;